Latest Weather Observations for Nuriootpa

IDS60801

Issued at 6:05 pm CDT Monday 24 November 2014 (issued every 30 minutes, with the page automatically refreshed every 10 minutes)

About weather observations | Map of weather stations | Latest weather observations for SA | Other Formats
Station Details ID: 023373 Name: NURIOOTPA VITICULTURAL Lat: -34.48 Lon: 139.01 Height: 275.0 m
Data from the previous 72 hours. | See also: Recent months at Nuriootpa
Date/Time
CDT
Temp
°C
App
Temp
°C
Dew
Point
Rel
Hum
%
Delta-T
°C
Wind Press
QNH
hPa
Press
MSL
hPa
Rain
since 9 am
mm
Dir
 
Spd
km/h
Gust
km/h
Spd
kts
Gust
kts
24/06:00pm 17.8 11.5 5.6 44 6.0 WSW 28 50 15 27 1015.4 1014.7 0.0
24/05:38pm 18.4 11.1 4.3 39 6.8 SW 32 50 17 27 1015.1 1014.4 0.0
24/05:30pm 18.4 11.1 4.6 40 6.7 SW 32 48 17 26 1015.1 1014.4 0.0
24/05:01pm 18.7 10.9 4.8 40 6.8 WSW 35 56 19 30 1014.8 1014.1 0.0
24/05:00pm 19.1 11.8 5.4 40 6.8 WSW 33 50 18 27 1014.7 1014.0 0.0
24/04:33pm 19.1 12.1 5.9 42 6.6 WSW 32 52 17 28 1014.6 1013.9 0.0
24/04:30pm 19.6 12.6 5.8 40 6.9 WSW 32 44 17 24 1014.5 1013.8 0.0
24/04:11pm 19.7 13.6 6.5 42 6.7 SW 28 54 15 29 1014.4 1013.7 0.0
24/04:00pm 19.7 12.7 6.8 43 6.6 WSW 33 48 18 26 1014.4 1013.7 0.0
24/03:49pm 19.2 12.4 6.8 44 6.3 WSW 32 50 17 27 1014.4 1013.7 0.0
24/03:30pm 19.3 12.6 8.0 48 5.9 SW 33 50 18 27 1014.3 1013.6 0.0
24/03:11pm 19.7 14.1 8.8 49 5.8 WSW 28 48 15 26 1014.4 1013.7 0.0
24/03:00pm 18.7 12.7 8.6 52 5.3 WSW 30 46 16 25 1014.4 1013.7 0.0
24/02:32pm 19.2 13.5 9.7 54 5.1 SW 30 48 16 26 1014.1 1013.5 0.0
24/02:30pm 19.1 13.0 9.6 54 5.1 SW 32 48 17 26 1014.0 1013.3 0.0
24/02:07pm 19.4 13.9 9.3 52 5.4 WSW 28 48 15 26 1013.9 1013.2 0.0
24/02:00pm 20.4 15.4 11.0 54 5.2 WSW 28 43 15 23 1013.9 1013.2 0.0
24/01:50pm 19.7 13.8 10.6 55 5.0 WSW 32 50 17 27 1013.8 1013.1 0.0
24/01:30pm 20.2 14.0 10.1 52 5.5 SW 33 44 18 24 1013.8 1013.1 0.0
24/01:18pm 20.4 14.7 9.7 50 5.8 WSW 30 48 16 26 1013.8 1013.1 0.0
24/01:00pm 21.2 15.9 9.8 48 6.2 WSW 28 44 15 24 1013.7 1013.0 0.0
24/12:30pm 20.9 14.8 10.4 51 5.8 WSW 33 48 18 26 1013.7 1013.0 0.0
24/12:00pm 20.8 14.6 9.3 47 6.2 WSW 32 50 17 27 1013.1 1012.4 0.0
24/11:30am 21.5 14.7 6.8 38 7.6 SW 32 43 17 23 1013.0 1012.3 0.0
24/11:20am 21.9 15.7 7.7 40 7.5 WSW 30 48 16 26 1013.0 1012.3 0.0
24/11:00am 21.3 16.6 9.3 46 6.5 WSW 24 41 13 22 1012.9 1012.2 0.0
24/10:30am 21.2 17.6 10.5 50 5.9 SW 20 30 11 16 1012.8 1012.1 0.0
24/10:00am 20.3 17.0 12.8 62 4.3 SW 22 33 12 18 1012.6 1011.9 0.0
24/09:30am 19.7 16.8 12.3 62 4.2 W 19 24 10 13 1012.4 1011.7 0.0
24/09:00am 19.5 17.2 12.9 65 3.8 W 17 24 9 13 1011.8 1011.1 0.0
24/08:30am 19.2 16.2 12.7 66 3.7 WNW 20 28 11 15 1011.5 1010.8 0.0
24/08:00am 18.6 17.8 15.1 80 2.1 NW 13 19 7 10 1010.9 1010.1 0.0
24/07:30am 18.1 17.0 15.2 83 1.7 WNW 15 17 8 9 1010.5 1009.7 0.0
24/07:00am 18.7 16.4 13.1 70 3.2 WNW 17 24 9 13 1009.8 1009.1 0.0
24/06:30am 18.2 18.8 13.1 72 2.9 W 2 7 1 4 1009.1 1008.4 0.0
24/06:00am 17.5 17.7 13.1 75 2.5 WNW 4 7 2 4 1008.6 1007.9 0.0
24/05:30am 17.9 17.4 12.6 71 3.0 E 7 13 4 7 1007.8 1007.0 0.0
24/05:00am 19.8 18.6 11.6 59 4.6 E 9 11 5 6 1007.3 1006.5 0.0
24/04:30am 21.0 18.9 11.2 53 5.5 ENE 13 20 7 11 1006.5 1005.8 0.0
24/04:00am 21.5 19.0 11.0 51 5.9 NE 15 22 8 12 1006.4 1005.7 0.0
24/03:30am 21.0 19.4 11.4 54 5.4 NE 11 17 6 9 1006.9 1006.1 0.0
24/03:00am 21.0 19.4 11.6 55 5.3 ENE 11 15 6 8 1007.5 1006.7 0.0
24/02:30am 21.3 20.2 11.8 54 5.4 ENE 9 13 5 7 1008.3 1007.6 0.0
24/02:00am 21.3 20.2 11.8 54 5.4 ENE 9 11 5 6 1008.6 1007.9 0.0
24/01:30am 21.2 19.6 11.4 53 5.5 ENE 11 15 6 8 1009.1 1008.4 0.0
24/01:00am 20.9 19.7 11.7 55 5.2 E 9 11 5 6 1009.1 1008.4 0.0
24/12:30am 21.5 19.3 10.9 51 5.9 ENE 13 19 7 10 1009.3 1008.6 0.0
24/12:00am 21.4 19.6 10.8 50 5.9 ENE 11 17 6 9 1009.9 1009.2 0.0
 
Date/Time
CDT
Temp
°C
App
Temp
°C
Dew
Point
Rel
Hum
%
Delta-T
°C
Wind Press
QNH
hPa
Press
MSL
hPa
Rain
since 9 am
mm
Dir
 
Spd
km/h
Gust
km/h
Spd
kts
Gust
kts
23/11:30pm 21.7 19.4 10.5 49 6.2 ENE 13 22 7 12 1010.0 1009.3 0.0
23/11:00pm 21.3 19.2 11.1 52 5.7 E 13 19 7 10 1010.0 1009.3 0.0
23/10:30pm 22.0 20.2 10.7 48 6.3 E 11 20 6 11 1010.1 1009.4 0.0
23/10:00pm 22.4 20.1 10.6 47 6.6 E 13 19 7 10 1010.0 1009.3 0.0
23/09:30pm 23.1 20.2 9.7 42 7.4 E 15 24 8 13 1009.7 1009.0 0.0
23/09:00pm 23.5 20.2 9.5 41 7.7 E 17 24 9 13 1009.4 1008.7 0.0
23/08:30pm 24.1 20.7 9.2 38 8.2 E 17 28 9 15 1009.2 1008.5 0.0
23/08:00pm 25.1 21.1 8.4 34 9.1 E 19 30 10 16 1009.0 1008.3 0.0
23/07:30pm 25.8 22.2 8.2 32 9.6 E 17 30 9 16 1009.0 1008.3 0.0
23/07:00pm 26.8 23.3 8.7 32 10.0 E 17 24 9 13 1009.0 1008.3 0.0
23/06:30pm 26.2 22.8 9.3 34 9.4 E 17 24 9 13 1009.2 1008.5 0.0
23/06:00pm 27.0 24.3 9.0 32 10.0 E 13 24 7 13 1009.6 1008.9 0.0
23/05:30pm 27.0 25.1 9.2 32 9.9 SE 9 15 5 8 1010.5 1009.7 0.0
23/05:00pm 26.9 25.3 8.0 30 10.3 S 6 11 3 6 1010.9 1010.1 0.0
23/04:30pm 26.5 22.8 6.5 28 10.6 SSW 15 20 8 11 1011.2 1010.5 0.0
23/04:00pm 26.2 22.5 6.3 28 10.5 SSW 15 22 8 12 1011.7 1011.0 0.0
23/03:30pm 27.4 23.3 8.8 31 10.3 SW 20 28 11 15 1011.7 1011.0 0.0
23/03:00pm 27.4 23.3 7.7 28 10.7 SW 19 26 10 14 1012.1 1011.4 0.0
23/02:30pm 29.0 24.7 6.8 24 12.0 W 19 28 10 15 1012.5 1011.8 0.0
23/02:00pm 28.5 25.4 7.1 26 11.6 WSW 13 17 7 9 1011.8 1011.1 0.0
23/01:30pm 28.4 25.8 6.3 24 11.8 NW 9 20 5 11 1012.0 1011.3 0.0
23/01:00pm 28.6 26.6 8.6 28 11.1 N 9 13 5 7 1012.4 1011.7 0.0
23/12:30pm 27.2 23.7 8.8 31 10.2 NE 17 22 9 12 1012.6 1011.9 0.0
23/12:00pm 26.6 23.4 9.9 35 9.4 NE 17 24 9 13 1012.9 1012.2 0.0
23/11:30am 25.8 22.9 9.7 36 9.0 ENE 15 22 8 12 1012.8 1012.1 0.0
23/11:00am 25.3 22.2 10.4 39 8.4 NE 17 26 9 14 1012.8 1012.1 0.0
23/10:30am 23.6 20.9 10.3 43 7.4 ENE 15 24 8 13 1012.7 1012.0 0.0
23/10:00am 23.0 20.2 11.3 47 6.6 ENE 17 22 9 12 1012.6 1011.9 0.0
23/09:30am 21.9 20.2 11.2 50 6.0 NE 11 15 6 8 1012.9 1012.2 0.0
23/09:00am 19.2 19.1 13.9 71 3.1 NE 7 11 4 6 1013.1 1012.4 7.6
23/08:30am 17.1 16.5 13.6 80 2.0 NE 9 13 5 7 1013.1 1012.4 7.6
23/08:00am 15.7 16.5 12.7 82 1.7 CALM 0 6 0 3 1013.2 1012.5 7.6
23/07:30am 15.2 16.0 12.7 85 1.4 CALM 0 0 0 0 1013.0 1012.3 7.6
23/07:00am 12.9 13.5 12.0 94 0.5 CALM 0 0 0 0 1013.1 1012.4 7.6
23/06:30am 11.4 10.5 10.8 96 0.3 E 6 7 3 4 1012.9 1012.2 7.6
23/06:00am 10.9 10.7 10.5 97 0.2 N 2 6 1 3 1013.0 1012.3 7.6
23/05:30am 10.7 10.8 10.1 96 0.3 CALM 0 0 0 0 1012.6 1011.9 7.6
23/05:00am 11.4 11.3 10.8 96 0.3 N 2 6 1 3 1012.8 1012.1 7.6
23/04:30am 11.5 11.7 10.7 95 0.4 CALM 0 4 0 2 1012.8 1012.1 7.6
23/04:00am 11.8 11.0 11.0 95 0.4 NNE 6 6 3 3 1012.5 1011.8 7.6
23/03:30am 12.2 12.5 10.9 92 0.7 CALM 0 0 0 0 1012.2 1011.5 7.6
23/03:00am 12.2 12.6 11.1 93 0.6 CALM 0 0 0 0 1012.2 1011.5 7.6
23/02:30am 12.8 12.3 10.9 88 1.0 ENE 4 6 2 3 1012.3 1011.6 7.6
23/02:00am 13.3 12.4 10.5 83 1.5 E 6 9 3 5 1012.4 1011.7 7.6
23/01:30am 13.8 12.7 10.8 82 1.6 E 7 9 4 5 1012.5 1011.8 7.6
23/01:00am 14.5 13.6 11.4 82 1.7 ESE 7 11 4 6 1012.6 1011.9 7.6
23/12:30am 15.4 14.6 12.9 85 1.4 E 9 11 5 6 1012.9 1012.2 7.6
23/12:00am 15.9 17.4 14.7 93 0.7 CALM 0 0 0 0 1012.9 1012.2 7.6
 
Date/Time
CDT
Temp
°C
App
Temp
°C
Dew
Point
Rel
Hum
%
Delta-T
°C
Wind Press
QNH
hPa
Press
MSL
hPa
Rain
since 9 am
mm
Dir
 
Spd
km/h
Gust
km/h
Spd
kts
Gust
kts
22/11:30pm 15.4 16.7 14.2 92 0.7 CALM 0 0 0 0 1012.9 1012.2 7.6
22/11:00pm 16.0 16.2 14.3 90 1.0 S 6 11 3 6 1012.6 1011.9 7.6
22/10:30pm 16.9 16.0 13.8 82 1.8 WSW 11 15 6 8 1012.4 1011.7 7.6
22/10:00pm 17.5 16.6 13.7 78 2.2 WSW 11 17 6 9 1012.1 1011.4 7.6
22/09:30pm 18.6 17.8 14.1 75 2.6 WSW 11 15 6 8 1011.5 1010.8 7.6
22/09:00pm 19.4 17.8 13.9 70 3.2 WSW 15 20 8 11 1011.1 1010.4 7.6
22/08:30pm 19.8 18.0 14.5 71 3.1 WSW 17 22 9 12 1010.8 1010.0 7.6
22/08:00pm 21.0 19.9 14.4 66 3.9 WSW 13 19 7 10 1010.2 1009.5 7.6
22/07:30pm 21.9 20.2 13.7 59 4.8 SW 15 22 8 12 1009.8 1009.1 7.6
22/07:00pm 23.0 20.7 14.7 59 5.0 WSW 20 32 11 17 1009.1 1008.4 7.6
22/06:30pm 24.4 21.7 14.6 54 5.9 WSW 22 33 12 18 1008.5 1007.8 7.6
22/06:00pm 25.8 23.3 14.0 48 7.1 WSW 20 30 11 16 1008.1 1007.4 7.6
22/05:30pm 26.7 23.9 13.3 43 8.0 W 20 28 11 15 1007.8 1007.0 7.6
22/05:00pm 27.4 24.9 13.6 42 8.3 SW 19 30 10 16 1007.6 1006.8 7.6
22/04:30pm 27.5 24.3 13.1 41 8.6 SW 22 30 12 16 1007.5 1006.7 7.6
22/04:00pm 27.5 25.0 13.5 42 8.4 SW 19 26 10 14 1007.5 1006.7 7.6
22/03:30pm 27.6 26.7 13.8 42 8.3 SW 11 15 6 8 1007.7 1006.9 7.6
22/03:00pm 27.1 25.1 14.0 44 7.9 SSW 17 24 9 13 1007.8 1007.0 7.6
22/02:30pm 26.2 24.2 12.8 43 7.9 E 15 20 8 11 1007.7 1006.9 7.6
22/02:00pm 25.4 23.1 11.9 43 7.8 SE 15 20 8 11 1008.6 1007.9 7.6
22/01:30pm 24.4 22.6 12.1 46 7.1 ESE 13 20 7 11 1009.1 1008.4 7.6
22/01:00pm 23.0 21.6 13.5 55 5.6 E 13 20 7 11 1008.6 1007.9 7.6
22/12:30pm 22.8 20.5 14.0 57 5.2 E 19 30 10 16 1008.4 1007.7 7.6
22/12:00pm 21.7 20.2 16.3 71 3.3 ESE 19 28 10 15 1008.9 1008.2 7.6
22/11:30am 19.3 16.8 16.2 82 1.9 SSE 24 32 13 17 1010.0 1009.3 7.6
22/11:24am 21.4 18.9 15.1 67 3.8 SSW 22 39 12 21 1010.8 1010.0 3.8
22/11:21am 21.7 19.0 15.6 68 3.7 SSW 24 39 13 21 1013.2 1012.5 3.4
22/11:18am 22.1 20.8 15.9 68 3.8 SE 17 26 9 14 1010.7 1009.9 3.4
22/11:00am 22.1 21.2 16.8 72 3.3 ESE 17 22 9 12 1008.6 1007.9 3.4
22/10:30am 22.7 20.7 13.9 57 5.2 S 17 22 9 12 1010.3 1009.6 0.0
22/10:00am 22.0 22.6 16.8 72 3.2 NE 9 17 5 9 1008.8 1008.1 0.0
22/09:30am 19.9 19.4 15.9 78 2.4 S 13 17 7 9 1010.2 1009.5 0.0
22/09:00am 17.2 14.8 13.7 80 2.0 ESE 19 24 10 13 1010.7 1009.9 8.6
22/08:46am 18.7 15.4 13.9 73 2.8 SSW 24 33 13 18 1011.0 1010.3 2.6
22/08:30am 18.8 17.1 12.6 67 3.5 E 13 20 7 11 1008.7 1008.0 2.6
22/08:00am 18.3 17.2 14.4 78 2.3 S 13 19 7 10 1010.6 1009.8 0.8
22/07:30am 16.9 16.6 12.8 77 2.3 E 6 13 3 7 1009.3 1008.6 0.8
22/07:00am 17.6 16.5 10.8 64 3.7 NW 7 17 4 9 1010.3 1009.6 0.2
22/06:30am 17.2 15.9 11.4 68 3.2 ESE 9 15 5 8 1009.1 1008.4 0.2
22/06:00am 18.0 16.2 9.4 57 4.6 SSW 9 15 5 8 1009.2 1008.5 0.2
22/05:30am 19.7 17.1 6.3 41 6.8 NE 9 13 5 7 1009.1 1008.4 0.2
22/05:00am 19.4 16.4 6.1 42 6.7 NE 11 17 6 9 1007.9 1007.2 0.2
22/04:30am 17.5 14.7 7.1 50 5.3 NE 11 15 6 8 1008.2 1007.5 0.2
22/04:00am 16.4 14.7 7.6 56 4.5 ENE 6 9 3 5 1008.2 1007.5 0.2
22/03:30am 17.4 14.5 6.4 48 5.5 ENE 11 13 6 7 1008.1 1007.4 0.2
22/03:00am 16.3 13.4 6.7 53 4.8 ENE 11 15 6 8 1008.3 1007.6 0.2
22/02:30am 16.7 13.8 6.7 51 5.0 NE 11 13 6 7 1008.6 1007.9 0.2
22/02:00am 17.2 14.3 6.7 50 5.3 NE 11 20 6 11 1008.9 1008.2 0.2
22/01:30am 16.8 14.3 6.6 51 5.1 NE 9 13 5 7 1009.3 1008.6 0.2
22/01:00am 16.5 15.5 7.2 54 4.7 NE 2 7 1 4 1009.8 1009.1 0.2
22/12:30am 16.7 15.0 8.4 58 4.3 NNE 7 11 4 6 1010.2 1009.5 0.2
22/12:00am 18.6 16.2 6.8 46 6.0 ENE 9 15 5 8 1010.7 1009.9 0.2
 
Date/Time
CDT
Temp
°C
App
Temp
°C
Dew
Point
Rel
Hum
%
Delta-T
°C
Wind Press
QNH
hPa
Press
MSL
hPa
Rain
since 9 am
mm
Dir
 
Spd
km/h
Gust
km/h
Spd
kts
Gust
kts
21/11:30pm 18.7 16.0 7.2 47 5.9 E 11 19 6 10 1010.9 1010.1 0.2
21/11:00pm 19.0 15.8 6.8 45 6.2 ESE 13 20 7 11 1011.3 1010.6 0.2
21/10:30pm 18.8 16.7 6.6 45 6.2 E 7 13 4 7 1011.7 1011.0 0.2
21/10:00pm 18.1 16.4 8.3 52 5.1 E 7 11 4 6 1011.7 1011.0 0.2
21/09:30pm 18.4 17.0 9.6 56 4.7 E 7 9 4 5 1011.6 1010.9 0.2
21/09:00pm 18.9 17.6 9.8 55 4.9 E 7 9 4 5 1011.6 1010.9 0.2
21/08:30pm 19.8 18.2 10.3 54 5.2 SSE 9 11 5 6 1011.5 1010.8 0.2
21/08:00pm 21.8 21.3 12.0 53 5.6 S 6 7 3 4 1011.4 1010.7 0.2
21/07:30pm 24.4 22.3 6.7 32 9.3 S 7 9 4 5 1011.3 1010.6 0.2
21/07:00pm 25.4 22.5 4.6 26 10.6 S 9 11 5 6 1011.1 1010.4 0.2
21/06:30pm 26.2 23.3 4.8 25 11.0 SW 9 15 5 8 1011.0 1010.3 0.2

Other Formats:

Comma delimited format used in spreadsheet applications
http://www.bom.gov.au/fwo/IDS60801/IDS60801.94681.axf

JavaScript Object Notation format (JSON) in row-major order
http://www.bom.gov.au/fwo/IDS60801/IDS60801.94681.json